createdAt,value
2022-07-30T00:01:55.651Z,15.83
2022-07-30T00:11:57.895Z,15.59
2022-07-30T00:22:04.007Z,15.40
2022-07-30T00:32:06.672Z,15.27
2022-07-30T00:42:09.061Z,15.15
2022-07-30T00:52:11.332Z,15.09
2022-07-30T01:02:13.635Z,14.97
2022-07-30T01:12:20.209Z,14.82
2022-07-30T01:22:31.151Z,14.72
2022-07-30T01:32:37.009Z,14.62
2022-07-30T01:42:41.205Z,14.61
2022-07-30T01:52:46.160Z,14.47
2022-07-30T02:02:51.499Z,14.33
2022-07-30T02:12:56.977Z,14.27
2022-07-30T02:23:03.735Z,14.23
2022-07-30T02:33:10.846Z,14.11
2022-07-30T02:43:16.835Z,13.99
2022-07-30T02:53:21.444Z,13.90
2022-07-30T03:03:29.714Z,13.77
2022-07-30T03:13:32.115Z,13.66
2022-07-30T03:23:37.896Z,13.52
2022-07-30T03:33:41.616Z,13.44
2022-07-30T03:43:45.614Z,13.34
2022-07-30T03:53:48.866Z,13.27
2022-07-30T04:03:51.608Z,13.16
2022-07-30T04:13:53.915Z,13.13
2022-07-30T04:24:03.816Z,13.12
2022-07-30T04:34:07.706Z,13.08
2022-07-30T04:44:09.981Z,13.12
2022-07-30T04:54:16.030Z,13.25
2022-07-30T05:04:20.859Z,13.48
2022-07-30T05:14:24.649Z,13.78
2022-07-30T05:24:26.835Z,14.15
2022-07-30T05:34:29.193Z,14.55
2022-07-30T05:44:31.554Z,15.01
2022-07-30T05:54:33.694Z,15.50
2022-07-30T06:04:36.010Z,16.00
2022-07-30T06:14:38.472Z,16.39
2022-07-30T06:24:40.970Z,16.86
2022-07-30T06:34:43.824Z,17.42
2022-07-30T06:44:46.041Z,18.04
2022-07-30T06:54:48.814Z,18.81
2022-07-30T07:04:51.203Z,19.41
2022-07-30T07:14:53.582Z,19.92
2022-07-30T07:24:56.020Z,20.45
2022-07-30T07:34:59.363Z,20.92
2022-07-30T07:45:04.326Z,21.43
2022-07-30T07:55:07.825Z,22.10
2022-07-30T08:05:12.968Z,22.58
2022-07-30T08:15:17.082Z,23.11
2022-07-30T08:25:24.451Z,23.51
2022-07-30T08:35:27.058Z,24.00
2022-07-30T08:45:34.581Z,24.43
2022-07-30T08:55:38.425Z,24.72
2022-07-30T09:05:40.971Z,25.02
2022-07-30T09:15:43.667Z,25.49
2022-07-30T09:25:48.438Z,25.58
2022-07-30T09:35:56.916Z,25.78
2022-07-30T09:46:01.601Z,26.14
2022-07-30T09:56:30.048Z,26.54
2022-07-30T10:06:34.442Z,26.88
2022-07-30T10:16:36.982Z,26.49
2022-07-30T10:26:41.559Z,27.21
2022-07-30T10:36:51.873Z,27.59
2022-07-30T10:47:07.657Z,28.30
2022-07-30T10:57:31.912Z,28.02
2022-07-30T11:07:36.720Z,28.66
2022-07-30T11:17:59.516Z,28.61
2022-07-30T11:28:02.296Z,28.30
2022-07-30T11:38:18.926Z,28.66
2022-07-30T11:48:21.824Z,27.88
2022-07-30T11:58:27.309Z,27.61
2022-07-30T12:08:31.715Z,27.51
2022-07-30T12:18:40.470Z,27.61
2022-07-30T12:28:44.072Z,29.18
2022-07-30T12:38:52.571Z,30.23
2022-07-30T12:49:13.419Z,30.96
2022-07-30T12:59:27.129Z,29.85
2022-07-30T13:09:30.154Z,30.17
2022-07-30T13:19:34.101Z,29.18
2022-07-30T13:29:38.939Z,28.96
2022-07-30T13:39:47.224Z,29.97
2022-07-30T13:49:51.926Z,29.68
2022-07-30T13:59:54.395Z,28.87
2022-07-30T14:09:56.999Z,28.29
2022-07-30T14:20:01.556Z,27.85
2022-07-30T14:30:06.946Z,27.89
2022-07-30T14:40:17.895Z,29.39
2022-07-30T14:50:20.617Z,30.33
2022-07-30T15:00:24.429Z,31.52
2022-07-30T15:10:27.209Z,30.36
2022-07-30T15:20:30.885Z,29.58
2022-07-30T15:30:33.542Z,29.48
2022-07-30T15:40:36.437Z,28.90
2022-07-30T15:50:43.069Z,28.68
2022-07-30T16:00:45.600Z,28.21
2022-07-30T16:10:48.837Z,27.20
2022-07-30T16:20:51.305Z,26.59
2022-07-30T16:30:54.367Z,26.03
2022-07-30T16:40:57.201Z,25.87
2022-07-30T16:51:00.464Z,25.61
2022-07-30T17:01:03.398Z,25.22
2022-07-30T17:11:09.313Z,24.72
2022-07-30T17:21:12.629Z,24.39
2022-07-30T17:31:16.343Z,24.39
2022-07-30T17:41:18.835Z,24.76
2022-07-30T17:51:21.680Z,25.00
2022-07-30T18:01:26.633Z,25.00
2022-07-30T18:11:29.149Z,24.81
2022-07-30T18:21:32.202Z,24.55
2022-07-30T18:31:35.781Z,24.02
2022-07-30T18:41:38.085Z,23.25
2022-07-30T18:51:40.828Z,22.59
2022-07-30T19:01:44.522Z,22.02
2022-07-30T19:11:47.333Z,21.50
2022-07-30T19:21:50.533Z,21.03
2022-07-30T19:31:52.816Z,20.62
2022-07-30T19:41:55.563Z,20.31
2022-07-30T19:52:10.647Z,19.93
2022-07-30T20:02:22.421Z,19.65
2022-07-30T20:12:25.164Z,19.33
2022-07-30T20:22:29.654Z,19.05
2022-07-30T20:32:32.242Z,18.83
2022-07-30T20:42:35.831Z,18.61
2022-07-30T20:52:40.831Z,18.41
2022-07-30T21:02:46.441Z,18.20
2022-07-30T21:12:50.836Z,18.06
2022-07-30T21:22:56.611Z,17.93
2022-07-30T21:33:01.728Z,17.85
2022-07-30T21:43:04.548Z,17.67
2022-07-30T21:53:10.870Z,17.49
2022-07-30T22:04:00.612Z,17.30
2022-07-30T22:13:53.479Z,17.19
2022-07-30T22:23:58.452Z,17.25
2022-07-30T22:34:01.222Z,17.28
2022-07-30T22:44:03.909Z,17.22
2022-07-30T22:54:13.057Z,17.04
2022-07-30T23:04:15.835Z,16.86
2022-07-30T23:14:18.548Z,16.73
2022-07-30T23:24:21.091Z,16.60
2022-07-30T23:34:23.551Z,16.42
2022-07-30T23:44:25.924Z,16.35
2022-07-30T23:54:29.271Z,16.18
